Time;durP1;ratioP1;P1;durP2;ratioP2;P2;SDS_P1;SDS_P2;PMS_P1;PMS_P2;Temp;Humidity;BMP_temperature;BMP_pressure;BME280_temperature;BME280_humidity;BME280_pressure;Samples;Min_cycle;Max_cycle;Signal;HPM_P1;HPM_P2
2024/01/14 00:01:22;;;;;;;64.88;20.83;;;;;;;-0.62;83.06;100166.41;6089837;23;20025;-85
2024/01/14 00:03:49;;;;;;;64.60;20.63;;;;;;;-0.60;82.99;100164.63;6089575;23;20018;-85
2024/01/14 00:06:16;;;;;;;64.28;20.08;;;;;;;-0.58;82.74;100165.41;6090610;23;20354;-85
2024/01/14 00:08:43;;;;;;;61.15;21.42;;;;;;;-0.58;82.59;100151.53;6064955;23;20472;-84
2024/01/14 00:11:10;;;;;;;62.42;19.48;;;;;;;-0.62;82.87;100145.56;6089693;23;20026;-85
2024/01/14 00:13:37;;;;;;;64.45;21.58;;;;;;;-0.59;82.97;100148.03;6090289;23;20024;-85
2024/01/14 00:16:04;;;;;;;58.72;20.45;;;;;;;-0.60;82.87;100135.94;6066305;23;20026;-85
2024/01/14 00:18:30;;;;;;;57.53;20.15;;;;;;;-0.59;82.70;100128.94;6089768;23;20100;-84
2024/01/14 00:20:57;;;;;;;66.80;20.70;;;;;;;-0.58;82.86;100133.28;6065766;23;20025;-85
2024/01/14 00:23:24;;;;;;;56.72;19.77;;;;;;;-0.62;82.48;100127.31;6089048;23;20082;-85
2024/01/14 00:25:51;;;;;;;59.97;21.45;;;;;;;-0.58;82.67;100123.69;6090129;23;20376;-85
2024/01/14 00:28:17;;;;;;;60.92;20.67;;;;;;;-0.61;82.81;100115.09;6065800;23;20101;-85
2024/01/14 00:30:44;;;;;;;65.13;20.08;;;;;;;-0.59;82.58;100110.69;6089134;23;20018;-85
2024/01/14 00:33:11;;;;;;;66.10;20.48;;;;;;;-0.58;82.46;100105.44;6089859;23;20068;-85
2024/01/14 00:35:38;;;;;;;60.78;20.42;;;;;;;-0.60;82.54;100098.56;6090046;23;20030;-85
2024/01/14 00:38:10;;;;;;;67.28;22.58;;;;;;;-0.57;82.61;100090.63;6113809;23;20029;-85
2024/01/14 00:40:37;;;;;;;61.88;20.98;;;;;;;-0.58;82.51;100075.91;6089292;23;20108;-85
2024/01/14 00:43:04;;;;;;;67.15;22.40;;;;;;;-0.60;82.83;100077.69;6089761;23;20096;-84
2024/01/14 00:45:31;;;;;;;64.97;22.05;;;;;;;-0.59;82.61;100079.38;6113425;23;20022;-85
2024/01/14 00:47:57;;;;;;;62.38;21.95;;;;;;;-0.64;82.63;100076.94;6088953;23;20836;-85
2024/01/14 00:50:24;;;;;;;57.47;20.05;;;;;;;-0.64;82.25;100076.09;6065765;23;20045;-85
2024/01/14 00:52:51;;;;;;;61.38;20.20;;;;;;;-0.66;82.44;100069.22;6060935;23;20462;-85
2024/01/14 00:55:18;;;;;;;59.88;19.23;;;;;;;-0.63;82.60;100070.84;6084381;23;20102;-85
2024/01/14 00:57:47;;;;;;;58.85;18.98;;;;;;;-0.60;82.57;100062.06;6064362;23;20061;-85
2024/01/14 01:00:14;;;;;;;60.78;19.40;;;;;;;-0.63;82.62;100055.19;6060602;23;20026;-85
2024/01/14 01:02:40;;;;;;;62.30;18.00;;;;;;;-0.61;82.57;100057.72;6036222;23;20065;-85
2024/01/14 01:05:07;;;;;;;70.60;20.80;;;;;;;-0.64;82.65;100056.09;6090039;23;20121;-86
2024/01/14 01:07:36;;;;;;;67.90;20.35;;;;;;;-0.67;82.87;100044.03;6067467;23;20026;-85
2024/01/14 01:10:03;;;;;;;54.67;18.63;;;;;;;-0.63;82.97;100049.13;6090305;23;20029;-85
2024/01/14 01:12:29;;;;;;;59.97;20.70;;;;;;;-0.65;82.77;100059.63;6090685;23;20018;-85
2024/01/14 01:14:56;;;;;;;65.30;20.55;;;;;;;-0.65;82.83;100049.19;6043716;23;20345;-85
2024/01/14 01:17:23;;;;;;;58.67;20.08;;;;;;;-0.67;82.83;100046.63;6091317;23;20367;-85
2024/01/14 01:19:50;;;;;;;54.55;18.58;;;;;;;-0.66;82.62;100047.50;6066904;23;20470;-85
2024/01/14 01:22:17;;;;;;;61.92;20.05;;;;;;;-0.67;83.07;100049.25;6067740;23;20033;-85
2024/01/14 01:24:44;;;;;;;71.18;20.40;;;;;;;-0.66;83.26;100042.28;6091094;23;20025;-85
2024/01/14 01:27:11;;;;;;;64.55;20.75;;;;;;;-0.64;83.05;100045.66;6068075;23;20013;-85
2024/01/14 01:29:38;;;;;;;58.75;19.38;;;;;;;-0.66;82.86;100045.75;6066746;23;20521;-85
2024/01/14 01:32:05;;;;;;;69.35;21.13;;;;;;;-0.64;82.72;100039.59;6067373;23;20054;-85
2024/01/14 01:34:37;;;;;;;56.33;19.45;;;;;;;-0.66;82.88;100048.34;6091082;23;20030;-85
2024/01/14 01:37:05;;;;;;;64.15;19.17;;;;;;;-0.66;82.84;100044.91;6090879;23;20105;-85
2024/01/14 01:39:32;;;;;;;57.08;19.30;;;;;;;-0.69;82.80;100032.81;6089720;23;20032;-85
2024/01/14 01:41:59;;;;;;;55.40;17.00;;;;;;;-0.73;83.31;100040.81;6091096;23;20458;-85
2024/01/14 01:44:26;;;;;;;57.42;19.20;;;;;;;-0.74;83.61;100042.59;6091616;23;20017;-85
2024/01/14 01:46:54;;;;;;;55.90;17.65;;;;;;;-0.72;83.43;100037.28;6115182;23;20374;-85
2024/01/14 01:49:22;;;;;;;57.30;17.15;;;;;;;-0.75;83.41;100040.03;6089919;23;20025;-85
2024/01/14 01:51:50;;;;;;;55.25;19.20;;;;;;;-0.76;83.42;100031.34;6090783;23;20033;-85
2024/01/14 01:54:19;;;;;;;52.33;17.05;;;;;;;-0.78;83.04;100032.31;6091682;23;20350;-85
2024/01/14 01:56:46;;;;;;;59.10;18.75;;;;;;;-0.74;83.13;100036.50;6090444;23;20387;-85
2024/01/14 01:59:13;;;;;;;59.42;19.27;;;;;;;-0.76;83.57;100039.19;6090603;23;20488;-85
2024/01/14 02:01:40;;;;;;;54.75;17.15;;;;;;;-0.77;83.42;100029.63;6091276;23;21018;-85
2024/01/14 02:04:07;;;;;;;52.78;18.90;;;;;;;-0.76;83.20;100033.13;6115513;23;20787;-85
2024/01/14 02:06:37;;;;;;;49.95;16.60;;;;;;;-0.71;82.87;100028.56;6066382;23;20026;-85
2024/01/14 02:09:07;;;;;;;51.92;17.42;;;;;;;-0.71;83.09;100029.41;6089821;23;20110;-85
2024/01/14 02:11:35;;;;;;;53.55;16.20;;;;;;;-0.71;82.76;100020.75;6090015;23;20045;-85
2024/01/14 02:14:02;;;;;;;49.00;17.38;;;;;;;-0.72;82.75;100014.66;6091159;23;20050;-85
2024/01/14 02:16:29;;;;;;;59.95;17.15;;;;;;;-0.73;82.86;100025.19;6090291;23;20026;-85
2024/01/14 02:18:56;;;;;;;44.63;16.02;;;;;;;-0.72;82.82;100016.44;6090432;23;20541;-85
2024/01/14 02:21:27;;;;;;;58.90;17.40;;;;;;;-0.75;82.95;100009.56;6090836;23;20029;-85
2024/01/14 02:24:03;;;;;;;58.58;16.38;;;;;;;-0.75;82.98;100012.19;6066638;23;20018;-85
2024/01/14 02:26:30;;;;;;;54.20;16.65;;;;;;;-0.74;83.10;100013.03;6090667;23;20357;-85
2024/01/14 02:28:57;;;;;;;52.75;17.10;;;;;;;-0.78;83.23;100006.25;6090482;23;20029;-85
2024/01/14 02:31:24;;;;;;;60.70;19.05;;;;;;;-0.80;83.27;100002.84;6067257;23;20018;-85
2024/01/14 02:33:50;;;;;;;53.85;17.40;;;;;;;-0.81;83.40;99998.56;6090389;23;20073;-85
2024/01/14 02:36:17;;;;;;;60.50;17.92;;;;;;;-0.81;83.36;99996.78;6090808;23;20028;-85
2024/01/14 02:38:44;;;;;;;61.55;17.73;;;;;;;-0.80;83.23;99997.63;6090059;23;20394;-85
2024/01/14 02:41:10;;;;;;;52.40;17.42;;;;;;;-0.80;83.52;99993.25;6089766;23;20025;-85
2024/01/14 02:43:37;;;;;;;53.03;16.73;;;;;;;-0.83;83.30;99982.97;6066880;23;20081;-85
2024/01/14 02:46:04;;;;;;;59.78;17.77;;;;;;;-0.87;83.90;99986.59;6067085;23;20049;-85
2024/01/14 02:48:31;;;;;;;55.42;18.00;;;;;;;-0.80;83.54;99984.59;6089839;23;20029;-85
2024/01/14 02:50:58;;;;;;;49.95;16.92;;;;;;;-0.81;83.33;99980.31;6114957;23;20028;-85
2024/01/14 02:53:25;;;;;;;52.92;18.50;;;;;;;-0.82;83.30;99982.03;6090754;23;20454;-85
2024/01/14 02:55:52;;;;;;;62.05;18.85;;;;;;;-0.82;83.25;99975.97;6066150;23;20080;-84
2024/01/14 02:58:19;;;;;;;57.20;18.23;;;;;;;-0.82;83.34;99981.19;6062613;23;20081;-85
2024/01/14 03:00:46;;;;;;;55.47;18.70;;;;;;;-0.79;83.27;99971.50;6089920;23;20014;-85
2024/01/14 03:03:13;;;;;;;55.85;17.75;;;;;;;-0.79;83.26;99974.13;6089725;23;20484;-85
2024/01/14 03:05:40;;;;;;;63.53;18.73;;;;;;;-0.89;83.39;99978.84;6090270;23;20076;-85
2024/01/14 03:08:08;;;;;;;64.57;19.05;;;;;;;-0.86;84.03;99983.09;6066519;23;20052;-85
2024/01/14 03:10:34;;;;;;;65.32;18.70;;;;;;;-0.93;83.65;99986.84;6065964;23;20477;-85
2024/01/14 03:13:01;;;;;;;59.47;18.75;;;;;;;-0.94;83.66;99983.38;6066920;23;20089;-84
2024/01/14 03:15:28;;;;;;;59.15;18.65;;;;;;;-0.90;83.55;99982.34;6090232;23;20022;-85
2024/01/14 03:17:54;;;;;;;63.70;18.08;;;;;;;-0.90;83.69;99987.56;6090386;23;20034;-85
2024/01/14 03:20:22;;;;;;;60.30;18.85;;;;;;;-0.88;83.68;99982.28;6065608;23;20019;-84
2024/01/14 03:22:49;;;;;;;64.40;19.90;;;;;;;-0.85;83.67;99982.16;6090170;23;20068;-85
2024/01/14 03:25:16;;;;;;;58.45;18.08;;;;;;;-0.86;83.82;99988.31;6090098;23;20086;-85
2024/01/14 03:27:44;;;;;;;56.88;19.05;;;;;;;-0.86;83.70;99987.47;6065243;23;20022;-85
2024/01/14 03:30:11;;;;;;;55.00;17.60;;;;;;;-0.81;83.39;99981.16;6065282;23;20032;-84
2024/01/14 03:32:38;;;;;;;62.53;18.42;;;;;;;-0.83;83.22;99985.56;6089427;23;20580;-85
2024/01/14 03:35:05;;;;;;;60.20;18.20;;;;;;;-0.83;83.41;99980.34;6090881;23;20026;-85
2024/01/14 03:37:32;;;;;;;51.17;17.10;;;;;;;-0.85;83.60;99976.97;6065680;23;20029;-85
2024/01/14 03:39:59;;;;;;;46.83;16.90;;;;;;;-0.83;83.83;99972.53;6089375;23;20029;-85
2024/01/14 03:42:26;;;;;;;56.22;19.23;;;;;;;-0.82;83.60;99970.78;6066614;23;20410;-85
2024/01/14 03:44:52;;;;;;;55.80;17.23;;;;;;;-0.81;83.72;99972.50;6066043;23;20462;-85
2024/01/14 03:47:19;;;;;;;56.25;17.92;;;;;;;-0.85;84.08;99965.69;6090790;23;20465;-85
2024/01/14 03:49:46;;;;;;;56.85;18.25;;;;;;;-0.85;84.15;99963.06;6088055;23;20105;-84
2024/01/14 03:52:13;;;;;;;53.45;17.15;;;;;;;-0.86;84.58;99961.41;6089674;23;20046;-85
2024/01/14 03:54:40;;;;;;;61.50;18.80;;;;;;;-0.88;84.38;99964.88;6090699;23;20018;-84
2024/01/14 03:57:07;;;;;;;60.33;18.63;;;;;;;-0.93;84.39;99963.38;6114717;23;20018;-84
2024/01/14 03:59:34;;;;;;;64.55;18.98;;;;;;;-0.93;84.48;99966.81;6065510;23;20026;-84
2024/01/14 04:02:01;;;;;;;50.85;16.55;;;;;;;-0.87;84.40;99963.13;6114064;23;20363;-84
2024/01/14 04:04:27;;;;;;;57.42;17.27;;;;;;;-0.89;84.65;99962.31;6090315;23;20034;-84
2024/01/14 04:06:54;;;;;;;60.97;18.42;;;;;;;-0.88;84.33;99956.22;6089970;23;20089;-85
2024/01/14 04:09:21;;;;;;;58.35;18.25;;;;;;;-0.86;84.04;99953.56;6089828;23;20029;-85
2024/01/14 04:11:48;;;;;;;53.75;17.25;;;;;;;-0.91;84.36;99953.75;6089453;23;20026;-84
2024/01/14 04:14:15;;;;;;;55.05;16.92;;;;;;;-0.86;83.94;99956.19;6090763;23;20026;-85
2024/01/14 04:16:41;;;;;;;52.40;17.42;;;;;;;-0.90;84.35;99948.44;6089985;23;20026;-85
2024/01/14 04:19:08;;;;;;;51.85;17.38;;;;;;;-0.87;84.09;99955.31;6089199;23;20029;-85
2024/01/14 04:21:35;;;;;;;50.95;15.63;;;;;;;-0.88;84.07;99959.69;6090240;23;20036;-85
2024/01/14 04:24:02;;;;;;;53.67;17.00;;;;;;;-0.95;84.83;99955.59;6089847;23;20022;-85
2024/01/14 04:26:30;;;;;;;58.67;16.70;;;;;;;-0.96;85.20;99951.31;6114209;23;20021;-84
2024/01/14 04:28:56;;;;;;;51.40;15.40;;;;;;;-0.94;85.01;99952.09;6089506;23;20009;-84
2024/01/14 04:31:23;;;;;;;58.33;16.50;;;;;;;-0.93;84.82;99940.75;6090104;23;20029;-85
2024/01/14 04:33:50;;;;;;;57.72;16.70;;;;;;;-0.89;84.63;99944.09;6065480;23;20022;-84
2024/01/14 04:36:17;;;;;;;53.67;17.17;;;;;;;-0.94;85.05;99940.81;6114752;23;20018;-85
2024/01/14 04:38:44;;;;;;;53.30;17.08;;;;;;;-0.93;85.36;99942.53;6089117;23;20026;-85
2024/01/14 04:41:10;;;;;;;55.28;15.95;;;;;;;-0.89;85.02;99941.47;6091500;23;20034;-84
2024/01/14 04:43:37;;;;;;;55.13;16.77;;;;;;;-0.91;85.18;99928.53;6091686;23;20651;-85
2024/01/14 04:46:07;;;;;;;57.13;17.40;;;;;;;-0.92;85.00;99933.78;6067582;23;20037;-85
2024/01/14 04:48:33;;;;;;;52.63;16.48;;;;;;;-0.89;84.76;99941.47;6090590;23;20332;-85
2024/01/14 04:51:00;;;;;;;46.22;15.38;;;;;;;-0.90;84.64;99929.38;6092259;23;20050;-85
2024/01/14 04:53:27;;;;;;;45.88;16.70;;;;;;;-0.90;84.63;99929.38;6063612;23;20470;-84
2024/01/14 04:55:54;;;;;;;55.22;17.95;;;;;;;-0.93;84.79;99932.09;6114945;23;20033;-85
2024/01/14 04:58:20;;;;;;;55.55;16.65;;;;;;;-0.92;84.69;99920.75;6115650;23;20100;-84
2024/01/14 05:00:47;;;;;;;52.05;14.98;;;;;;;-0.91;84.51;99923.31;6091075;23;20454;-84
2024/01/14 05:03:14;;;;;;;48.53;15.75;;;;;;;-0.93;84.42;99925.13;6115866;23;20029;-85
2024/01/14 05:05:41;;;;;;;49.05;15.52;;;;;;;-0.89;84.34;99918.88;6067273;23;20093;-84
2024/01/14 05:08:07;;;;;;;54.08;16.20;;;;;;;-0.90;84.24;99911.97;6091551;23;20038;-84
2024/01/14 05:10:34;;;;;;;52.47;16.95;;;;;;;-0.92;84.17;99907.72;6091675;23;20022;-84
2024/01/14 05:13:01;;;;;;;54.75;16.40;;;;;;;-0.93;84.00;99913.84;6066305;23;20517;-84
2024/01/14 05:15:28;;;;;;;60.50;17.75;;;;;;;-0.90;83.78;99908.50;6091258;23;20406;-84
2024/01/14 05:17:55;;;;;;;55.50;16.63;;;;;;;-0.94;83.99;99905.19;6067604;23;20025;-84
2024/01/14 05:20:22;;;;;;;54.72;15.55;;;;;;;-0.94;83.88;99913.00;6067235;23;20466;-85
2024/01/14 05:22:49;;;;;;;50.92;16.92;;;;;;;-0.92;83.47;99910.31;6039757;23;20037;-84
2024/01/14 05:25:16;;;;;;;56.35;16.33;;;;;;;-0.92;83.65;99910.31;6063122;23;20014;-85
2024/01/14 05:27:42;;;;;;;56.05;15.88;;;;;;;-0.91;83.50;99912.88;6062383;23;20105;-85
2024/01/14 05:30:10;;;;;;;52.58;16.65;;;;;;;-0.90;83.58;99914.56;6062194;23;20053;-84
2024/01/14 05:32:36;;;;;;;50.33;16.42;;;;;;;-0.94;83.33;99914.75;6085807;23;20093;-85
2024/01/14 05:35:04;;;;;;;54.40;17.48;;;;;;;-0.93;83.35;99917.31;6063060;23;20025;-84
2024/01/14 05:37:31;;;;;;;49.90;16.67;;;;;;;-0.92;83.46;99916.38;6086478;23;20349;-84
2024/01/14 05:39:58;;;;;;;50.80;16.52;;;;;;;-0.92;83.32;99913.78;6090858;23;20083;-84
2024/01/14 05:42:24;;;;;;;50.25;16.88;;;;;;;-0.92;83.12;99912.94;6066502;23;20350;-85
2024/01/14 05:44:51;;;;;;;52.13;17.85;;;;;;;-0.94;83.51;99915.63;6091193;23;20018;-84
2024/01/14 05:47:18;;;;;;;61.03;17.63;;;;;;;-0.94;83.53;99910.41;6115565;23;20664;-84
2024/01/14 05:49:45;;;;;;;54.90;18.55;;;;;;;-0.92;83.49;99908.56;6065910;23;20026;-84
2024/01/14 05:52:12;;;;;;;56.40;16.92;;;;;;;-0.86;83.35;99914.47;6068282;23;20014;-85
2024/01/14 05:54:43;;;;;;;56.85;18.83;;;;;;;-0.91;83.37;99906.81;6091113;23;20026;-85
2024/01/14 05:57:10;;;;;;;53.53;16.90;;;;;;;-0.90;82.91;99901.53;6090997;23;20025;-84
2024/01/14 05:59:37;;;;;;;54.95;17.52;;;;;;;-0.91;83.10;99907.66;6089828;23;20409;-84
2024/01/14 06:02:04;;;;;;;59.15;17.40;;;;;;;-0.91;82.99;99906.81;6067833;23;20026;-84
2024/01/14 06:04:30;;;;;;;61.67;19.08;;;;;;;-0.90;82.70;99911.13;6091163;23;20033;-84
2024/01/14 06:06:57;;;;;;;56.45;18.63;;;;;;;-0.92;82.91;99902.50;6091044;23;20030;-84
2024/01/14 06:09:24;;;;;;;52.17;16.27;;;;;;;-0.95;83.20;99895.66;6091009;23;20092;-84
2024/01/14 06:11:51;;;;;;;56.33;17.85;;;;;;;-0.94;83.09;99889.56;6066681;23;20405;-84
2024/01/14 06:14:17;;;;;;;57.67;17.60;;;;;;;-0.97;83.51;99881.00;6067642;23;20753;-85
2024/01/14 06:16:44;;;;;;;69.90;19.92;;;;;;;-0.94;83.08;99878.25;6088064;23;20045;-85
2024/01/14 06:19:11;;;;;;;55.67;19.33;;;;;;;-0.99;82.79;99872.38;6089911;23;20398;-84
2024/01/14 06:21:42;;;;;;;56.00;17.33;;;;;;;-1.02;82.98;99862.09;6091014;23;20084;-84
2024/01/14 06:24:09;;;;;;;62.63;20.58;;;;;;;-1.06;83.04;99863.13;6091410;23;20728;-84
2024/01/14 06:26:36;;;;;;;67.45;19.67;;;;;;;-1.06;83.71;99863.97;6090864;23;20018;-84
2024/01/14 06:29:03;;;;;;;58.55;18.75;;;;;;;-1.03;83.63;99866.44;6090000;23;20025;-84
2024/01/14 06:31:29;;;;;;;61.65;19.92;;;;;;;-1.02;83.80;99868.13;6091141;23;20022;-84
2024/01/14 06:33:56;;;;;;;52.30;17.38;;;;;;;-1.05;83.95;99851.78;6091033;23;20462;-84
2024/01/14 06:36:23;;;;;;;54.03;17.33;;;;;;;-1.04;83.79;99856.06;6090810;23;20052;-84
2024/01/14 06:38:50;;;;;;;64.22;19.55;;;;;;;-1.07;84.12;99856.22;6066650;23;20060;-84
2024/01/14 06:41:21;;;;;;;61.25;18.25;;;;;;;-1.09;83.88;99851.06;6065640;23;20026;-85
2024/01/14 06:43:47;;;;;;;63.90;19.05;;;;;;;-1.09;83.97;99848.47;6089141;23;20086;-84
2024/01/14 06:46:15;;;;;;;60.95;18.75;;;;;;;-1.06;83.98;99847.50;6090233;23;20469;-84
2024/01/14 06:48:42;;;;;;;63.45;17.92;;;;;;;-1.05;84.10;99852.63;6089814;23;20550;-84
2024/01/14 06:51:08;;;;;;;60.80;19.33;;;;;;;-1.04;84.00;99850.88;6065743;23;20107;-85
2024/01/14 06:53:35;;;;;;;59.63;17.83;;;;;;;-1.08;83.85;99849.31;6065268;23;20026;-85
2024/01/14 06:56:02;;;;;;;58.53;18.50;;;;;;;-1.04;83.63;99848.25;6061481;23;20033;-85
2024/01/14 06:58:29;;;;;;;59.60;18.73;;;;;;;-1.05;83.74;99851.78;6063837;23;20025;-85
2024/01/14 07:00:56;;;;;;;56.72;18.38;;;;;;;-1.05;83.55;99844.81;6090411;23;20501;-85
2024/01/14 07:03:24;;;;;;;58.83;17.58;;;;;;;-1.07;83.66;99841.41;6051430;23;20026;-84
2024/01/14 07:05:52;;;;;;;67.20;19.40;;;;;;;-1.04;83.53;99843.03;6064835;23;20077;-84
2024/01/14 07:08:19;;;;;;;60.05;19.80;;;;;;;-1.07;83.44;99832.75;6066612;23;20033;-84
2024/01/14 07:10:46;;;;;;;59.10;18.40;;;;;;;-1.04;82.77;99832.63;6114030;23;20028;-84
2024/01/14 07:13:13;;;;;;;58.33;17.88;;;;;;;-1.04;82.87;99830.88;6064395;23;20026;-85
2024/01/14 07:15:40;;;;;;;65.72;19.60;;;;;;;-1.02;83.14;99830.81;6089619;23;20084;-85
2024/01/14 07:18:07;;;;;;;53.08;18.75;;;;;;;-1.02;82.99;99830.81;6090238;23;20032;-85
2024/01/14 07:20:35;;;;;;;61.65;18.08;;;;;;;-1.03;82.82;99829.97;6066090;23;20538;-85
2024/01/14 07:23:02;;;;;;;62.67;20.77;;;;;;;-1.03;82.89;99827.38;6089844;23;20026;-85
2024/01/14 07:25:49;;;;;;;65.60;19.88;;;;;;;-1.08;83.06;99829.31;6070409;23;20022;-85
2024/01/14 07:28:17;;;;;;;59.67;18.95;;;;;;;-1.04;82.86;99836.09;6113757;23;20029;-85
2024/01/14 07:30:44;;;;;;;61.35;19.83;;;;;;;-1.08;83.27;99825.84;6089338;23;20354;-84
2024/01/14 07:33:11;;;;;;;69.22;20.05;;;;;;;-1.14;82.81;99820.00;6114808;23;20042;-84
2024/01/14 07:35:38;;;;;;;62.17;21.20;;;;;;;-1.11;82.82;99825.06;6114171;23;20018;-84
2024/01/14 07:38:05;;;;;;;68.72;21.45;;;;;;;-1.13;83.47;99828.66;6088741;23;20032;-85
2024/01/14 07:40:31;;;;;;;70.40;23.23;;;;;;;-1.10;83.08;99824.16;6089348;23;20018;-84
2024/01/14 07:42:58;;;;;;;68.95;20.35;;;;;;;-1.05;82.73;99825.72;6090215;23;20648;-84
2024/01/14 07:45:25;;;;;;;61.05;20.67;;;;;;;-1.03;83.00;99831.72;6066110;23;20395;-85
2024/01/14 07:47:52;;;;;;;68.70;19.55;;;;;;;-1.00;82.26;99832.44;6089278;23;20113;-84
2024/01/14 07:50:19;;;;;;;56.35;18.20;;;;;;;-1.02;82.33;99826.44;6065945;23;20327;-84
2024/01/14 07:52:45;;;;;;;63.80;18.73;;;;;;;-1.05;82.11;99831.78;6090625;23;20034;-84
2024/01/14 07:55:12;;;;;;;58.50;20.25;;;;;;;-1.06;82.19;99834.47;6090131;23;20775;-85
2024/01/14 07:57:39;;;;;;;60.88;18.35;;;;;;;-1.07;82.23;99824.94;6114090;23;20014;-84
2024/01/14 08:00:06;;;;;;;56.00;18.73;;;;;;;-1.04;82.73;99830.00;6061970;23;20030;-84
2024/01/14 08:02:37;;;;;;;59.13;17.63;;;;;;;-1.05;82.34;99825.72;6042449;23;20022;-84
2024/01/14 08:05:04;;;;;;;63.13;18.95;;;;;;;-1.01;82.35;99817.72;6090397;23;20105;-84
2024/01/14 08:07:31;;;;;;;63.75;19.63;;;;;;;-0.99;82.33;99828.06;6113934;23;20017;-84
2024/01/14 08:09:59;;;;;;;57.35;17.33;;;;;;;-1.05;82.36;99818.75;6088824;23;20052;-85
2024/01/14 08:12:26;;;;;;;65.82;18.42;;;;;;;-1.09;81.98;99822.41;6113840;23;20028;-85
2024/01/14 08:14:52;;;;;;;60.95;18.90;;;;;;;-1.04;81.87;99819.59;6065965;23;20350;-85
2024/01/14 08:17:19;;;;;;;53.38;18.85;;;;;;;-1.04;82.09;99825.69;6090957;23;20030;-84
2024/01/14 08:19:46;;;;;;;60.55;19.25;;;;;;;-1.01;81.99;99820.34;6064443;23;20018;-84
2024/01/14 08:22:17;;;;;;;61.58;18.67;;;;;;;-1.00;81.53;99824.63;6113943;23;20026;-85
2024/01/14 08:24:44;;;;;;;66.50;19.17;;;;;;;-1.05;81.40;99823.97;6089486;23;20030;-84
2024/01/14 08:27:11;;;;;;;57.95;16.88;;;;;;;-1.07;81.58;99825.78;6090180;23;20024;-84
2024/01/14 08:29:37;;;;;;;57.25;17.38;;;;;;;-1.10;81.30;99821.53;6088782;23;20335;-84
2024/01/14 08:32:04;;;;;;;58.22;17.23;;;;;;;-1.07;81.51;99815.34;6090622;23;22470;-84
2024/01/14 08:34:31;;;;;;;57.17;17.17;;;;;;;-1.02;81.76;99807.34;6138253;23;20026;-84
2024/01/14 08:36:58;;;;;;;54.13;16.08;;;;;;;-0.99;81.52;99804.63;6065540;23;20046;-84
2024/01/14 08:39:25;;;;;;;56.53;18.08;;;;;;;-1.01;81.60;99806.47;6065408;23;20097;-84
2024/01/14 08:41:51;;;;;;;58.00;16.58;;;;;;;-1.03;81.05;99798.69;6088967;23;20362;-84
2024/01/14 08:44:18;;;;;;;62.15;18.35;;;;;;;-1.06;81.09;99791.00;6089360;23;20022;-85
2024/01/14 08:46:52;;;;;;;61.05;17.83;;;;;;;-1.06;81.08;99800.59;6068341;23;20025;-84
2024/01/14 08:49:19;;;;;;;65.53;17.40;;;;;;;-1.08;80.95;99792.00;6089164;23;20021;-85
2024/01/14 08:51:46;;;;;;;64.50;17.80;;;;;;;-1.00;81.25;99795.13;6090004;23;20130;-85
2024/01/14 08:54:13;;;;;;;61.92;18.52;;;;;;;-0.97;81.25;99794.97;6113769;23;20029;-85
2024/01/14 08:56:40;;;;;;;67.93;18.45;;;;;;;-0.96;80.82;99784.50;6090093;23;20831;-84
2024/01/14 08:59:07;;;;;;;67.95;19.75;;;;;;;-0.97;80.79;99787.16;6089688;23;20030;-84
2024/01/14 09:01:34;;;;;;;65.50;17.98;;;;;;;-0.94;80.90;99785.28;6065616;23;20026;-84
2024/01/14 09:04:00;;;;;;;64.70;18.27;;;;;;;-0.93;80.68;99791.34;6088943;23;20034;-84
2024/01/14 09:06:27;;;;;;;63.50;17.27;;;;;;;-1.01;80.84;99786.47;6062835;23;20120;-84
2024/01/14 09:08:54;;;;;;;70.57;18.52;;;;;;;-0.97;80.83;99781.94;6060130;23;20022;-85
2024/01/14 09:11:21;;;;;;;70.43;18.48;;;;;;;-0.94;80.51;99784.41;6060982;23;20026;-84
2024/01/14 09:13:48;;;;;;;64.43;18.30;;;;;;;-0.96;80.73;99781.06;6065044;23;20096;-84
2024/01/14 09:16:16;;;;;;;64.43;20.38;;;;;;;-0.97;80.70;99779.34;6090230;23;20521;-84
2024/01/14 09:18:42;;;;;;;62.13;19.10;;;;;;;-0.96;80.75;99778.44;6088975;23;20028;-84
2024/01/14 09:21:09;;;;;;;64.65;18.98;;;;;;;-0.90;80.71;99779.03;6089350;23;20249;-84
2024/01/14 09:23:36;;;;;;;59.50;18.33;;;;;;;-0.93;80.43;99776.56;6089506;23;20022;-84
2024/01/14 09:26:03;;;;;;;67.43;20.15;;;;;;;-0.92;80.22;99780.00;6091224;23;20053;-85
2024/01/14 09:28:31;;;;;;;64.15;20.30;;;;;;;-0.91;80.20;99779.09;6114831;23;20091;-85
2024/01/14 09:30:58;;;;;;;64.00;20.00;;;;;;;-0.93;80.47;99778.31;6090754;23;20451;-85
2024/01/14 09:33:25;;;;;;;68.18;19.17;;;;;;;-0.94;80.41;99780.09;6067298;23;20318;-85
2024/01/14 09:35:52;;;;;;;80.60;20.08;;;;;;;-0.93;80.55;99783.53;6115467;23;20057;-85
2024/01/14 09:38:19;;;;;;;67.15;20.02;;;;;;;-0.91;80.61;99782.56;6114592;23;20021;-85
2024/01/14 09:40:52;;;;;;;67.90;19.40;;;;;;;-0.93;80.29;99775.72;6090875;23;20016;-85
2024/01/14 09:43:18;;;;;;;68.05;19.63;;;;;;;-0.93;80.42;99775.72;6091250;23;20050;-85
2024/01/14 09:45:46;;;;;;;74.57;21.13;;;;;;;-0.94;80.03;99774.00;6067408;23;20438;-84
2024/01/14 09:48:15;;;;;;;66.03;18.48;;;;;;;-1.01;80.32;99760.38;6114946;23;20026;-85
2024/01/14 09:50:43;;;;;;;82.95;19.33;;;;;;;-0.99;80.45;99769.00;6091024;23;20116;-84
2024/01/14 09:53:11;;;;;;;67.20;18.13;;;;;;;-1.01;80.04;99773.44;6091184;23;20561;-85
2024/01/14 09:55:38;;;;;;;64.05;17.40;;;;;;;-1.03;79.94;99764.81;6091689;23;20020;-85
2024/01/14 09:58:06;;;;;;;61.28;19.08;;;;;;;-1.00;80.21;99763.84;6090121;23;20029;-85
2024/01/14 10:00:32;;;;;;;61.78;18.33;;;;;;;-1.03;80.03;99757.00;6090210;23;20064;-85
2024/01/14 10:02:59;;;;;;;67.07;20.17;;;;;;;-1.01;80.15;99756.94;6090728;23;20029;-85
2024/01/14 10:05:31;;;;;;;59.67;18.90;;;;;;;-0.98;80.11;99751.59;6067911;23;20026;-85
2024/01/14 10:07:57;;;;;;;70.97;17.85;;;;;;;-0.94;80.45;99740.97;6066543;23;20401;-84
2024/01/14 10:10:26;;;;;;;68.88;19.48;;;;;;;-0.93;80.37;99742.66;6090520;23;20358;-84
2024/01/14 10:12:53;;;;;;;74.85;19.10;;;;;;;-0.96;80.48;99745.41;6115032;23;20433;-84
2024/01/14 10:15:19;;;;;;;84.40;21.27;;;;;;;-0.88;80.38;99739.88;6089409;23;20114;-85
2024/01/14 10:17:46;;;;;;;71.85;18.67;;;;;;;-0.93;80.77;99739.22;6090131;23;20343;-85
2024/01/14 10:20:13;;;;;;;69.80;20.67;;;;;;;-0.90;80.76;99739.91;6090734;23;20009;-85
2024/01/14 10:22:43;;;;;;;71.95;18.30;;;;;;;-0.95;80.34;99721.03;6090969;23;20089;-84
2024/01/14 10:25:10;;;;;;;66.72;19.70;;;;;;;-0.92;80.74;99726.09;6090552;23;20025;-85
2024/01/14 10:27:37;;;;;;;64.05;18.48;;;;;;;-0.90;80.58;99719.06;6090481;23;20030;-85
2024/01/14 10:30:14;;;;;;;68.88;20.42;;;;;;;-0.87;80.16;99718.09;6090554;23;20025;-85
2024/01/14 10:32:42;;;;;;;62.05;17.33;;;;;;;-0.80;80.34;99708.25;6089347;23;20024;-85
2024/01/14 10:35:29;;;;;;;64.40;18.02;;;;;;;-0.78;80.49;99699.44;6114610;23;20037;-85
2024/01/14 10:37:57;;;;;;;62.42;18.90;;;;;;;-0.75;80.27;99707.13;6066243;23;20022;-85
2024/01/14 10:40:24;;;;;;;70.28;19.30;;;;;;;-0.74;80.35;99705.34;6066263;23;20046;-85
2024/01/14 10:42:51;;;;;;;75.38;19.85;;;;;;;-0.77;80.30;99706.34;6090403;23;20026;-85
2024/01/14 10:45:18;;;;;;;66.07;17.70;;;;;;;-0.74;80.31;99697.53;6091368;23;20446;-85
2024/01/14 10:47:47;;;;;;;70.30;20.27;;;;;;;-0.71;80.09;99687.00;6090176;23;20485;-85
2024/01/14 10:50:18;;;;;;;89.03;26.20;;;;;;;-0.71;79.90;99692.22;6090649;23;20032;-85
2024/01/14 10:52:55;;;;;;;77.35;24.05;;;;;;;-0.73;80.01;99679.22;6089927;23;20038;-85
2024/01/14 10:55:35;;;;;;;101.07;33.60;;;;;;;-0.71;79.75;99677.41;6067635;23;20022;-84
2024/01/14 10:58:03;;;;;;;67.40;21.13;;;;;;;-0.71;80.01;99677.41;6067909;23;20501;-85
2024/01/14 11:00:34;;;;;;;67.93;21.75;;;;;;;-0.73;79.80;99676.63;6091783;23;20529;-84
2024/01/14 11:03:05;;;;;;;75.38;21.75;;;;;;;-0.76;80.04;99668.09;6068057;23;20032;-84
2024/01/14 11:05:33;;;;;;;74.13;24.23;;;;;;;-0.78;80.32;99657.72;6091481;23;20390;-84
2024/01/14 11:08:01;;;;;;;69.45;21.95;;;;;;;-0.70;80.05;99663.44;6091988;23;20026;-84
2024/01/14 11:10:28;;;;;;;65.45;18.45;;;;;;;-0.70;80.18;99660.84;6092285;23;20018;-84
2024/01/14 11:13:21;;;;;;;64.90;16.73;;;;;;;-0.70;79.99;99660.84;6115542;23;20061;-84
2024/01/14 11:15:56;;;;;;;56.70;15.77;;;;;;;-0.68;79.75;99655.56;6091161;23;20378;-84